Jeffersonville, OH (43128)

1:41 AM EDT on April 28, 2015 (GMT -0400)
Slightly NW of WCH | | Change Station
CLOSE
Current Station
Personal Weather Station
Location: WASHINGTON COURT HOUSE, OH
Elevation: 1020 ft
Nearby Weather Stations
Active Advisory: Frost Advisory

Elev 1020 ft 39.57 °N, 83.50 °W | Updated 1 minute ago

Clear
Clear
37.8 °F
Feels Like 38 °F
N
0.0
Wind Variable Wind from NE

Today
High -- | Low -- °F
--% Chance of Precip.
Yesterday
High -- | Low -- °F
Precip. -- in
6:39 AM 8:25 PM
Waxing Gibbous, 71% visible
Pressure 30.10 in
Visibility 7.0 miles
Clouds Clear
Windchill 38 °F
Dew Point 38 °F
Humidity 99%
Rainfall 0.00 in
Snow Depth Not available.
UV 0 out of 12
Pollen 10.40 out of 12
Air Quality Not available.
Flu Activity Regional
METAR KSGH 280456Z AUTO 31003KT 7SM CLR 04/02 A3009 RMK AO2 T00440016 SLP192

More Conditions Fewer Conditions

Pressure 30.10 in
Visibility 7.0 miles
Clouds Clear
Windchill 38 °F
Dew Point 38 °F
Humidity 99%
Rainfall 0.00 in
Snow Depth Not available.
UV 0 out of 12
Pollen 10.40 out of 12
Air Quality Not available.
Flu Activity Regional
METAR KSGH 280456Z AUTO 31003KT 7SM CLR 04/02 A3009 RMK AO2 T00440016 SLP192

More Conditions Fewer Conditions

10-Day Weather Forecast

Almanac

Astronomy

Apr. 28, 2015 Rise Set
Actual Time
Civil Twilight
Nautical Twilight
Astronomical Twilight
Moon
Length of Visible Light
Length of Day
Tomorrow will be .
, % of the Moon is Illuminated

Today's Extremes

State Highs State Lows

Community

WunderPhotos

Upload Photos

1,817,586 photos uploaded!

WunderBlogs® & News

Nearby

Air Quality

  Air Quality AQ Index Pollutant
Not available.

Snow Depth

Station Depth Elevation

Earthquake Activity

City Distance Mag. Time & Date
Minimum magnitude displayed is 2.5.

Coastal Water Temperatures

Place Temperature

Stations

Nearby Weather Stations

Station Location Temp. Windchill Dew Point Humidity Wind Precip. Elev Updated Type
                   
Frost Advisory
Statement as of 12:14 AM EDT on April 28, 2015

... Frost advisory remains in effect until 9 am EDT this morning...

* temperatures... lows in the mid 30s.

* Impacts... sensitive plants left outdoors and unprotected may
be damaged.

Precautionary/preparedness actions...

A frost advisory means that frost is likely. Sensitive outdoor
plants may be killed if left uncovered.